sensor_id;sensor_type;location;lat;lon;timestamp;P1;P2;P0
57289;PMS5003;43523;53.022;-1.178;2023-03-20T00:00:44;10;8;
57289;PMS5003;43523;53.022;-1.178;2023-03-20T00:01:48;10;8;
57289;PMS5003;43523;53.022;-1.178;2023-03-20T00:02:50;11;9;
57289;PMS5003;43523;53.022;-1.178;2023-03-20T00:03:53;7;7;
57289;PMS5003;43523;53.022;-1.178;2023-03-20T00:04:55;10;6;
57289;PMS5003;43523;53.022;-1.178;2023-03-20T00:05:57;14;9;
57289;PMS5003;43523;53.022;-1.178;2023-03-20T00:07:00;6;5;
57289;PMS5003;43523;53.022;-1.178;2023-03-20T00:08:02;7;7;
57289;PMS5003;43523;53.022;-1.178;2023-03-20T00:09:04;12;8;
57289;PMS5003;43523;53.022;-1.178;2023-03-20T00:10:07;9;7;
57289;PMS5003;43523;53.022;-1.178;2023-03-20T00:11:15;8;6;
57289;PMS5003;43523;53.022;-1.178;2023-03-20T00:12:28;6;5;
57289;PMS5003;43523;53.022;-1.178;2023-03-20T00:13:30;11;9;
57289;PMS5003;43523;53.022;-1.178;2023-03-20T00:14:32;6;5;
57289;PMS5003;43523;53.022;-1.178;2023-03-20T00:15:35;6;4;
57289;PMS5003;43523;53.022;-1.178;2023-03-20T00:16:40;9;5;
57289;PMS5003;43523;53.022;-1.178;2023-03-20T00:17:44;9;6;
57289;PMS5003;43523;53.022;-1.178;2023-03-20T00:18:47;6;5;
57289;PMS5003;43523;53.022;-1.178;2023-03-20T00:19:50;6;4;
57289;PMS5003;43523;53.022;-1.178;2023-03-20T00:20:52;8;6;
57289;PMS5003;43523;53.022;-1.178;2023-03-20T00:21:55;4;4;
57289;PMS5003;43523;53.022;-1.178;2023-03-20T00:22:58;4;4;
57289;PMS5003;43523;53.022;-1.178;2023-03-20T00:24:01;5;4;
57289;PMS5003;43523;53.022;-1.178;2023-03-20T00:25:03;5;5;
57289;PMS5003;43523;53.022;-1.178;2023-03-20T00:26:07;6;6;
57289;PMS5003;43523;53.022;-1.178;2023-03-20T00:27:13;10;5;
57289;PMS5003;43523;53.022;-1.178;2023-03-20T00:28:27;5;5;
57289;PMS5003;43523;53.022;-1.178;2023-03-20T00:29:35;10;5;
57289;PMS5003;43523;53.022;-1.178;2023-03-20T00:30:38;6;5;
57289;PMS5003;43523;53.022;-1.178;2023-03-20T00:31:40;5;5;
57289;PMS5003;43523;53.022;-1.178;2023-03-20T00:32:43;5;3;
57289;PMS5003;43523;53.022;-1.178;2023-03-20T00:33:45;5;4;
57289;PMS5003;43523;53.022;-1.178;2023-03-20T00:34:49;3;3;
57289;PMS5003;43523;53.022;-1.178;2023-03-20T00:35:51;7;4;
57289;PMS5003;43523;53.022;-1.178;2023-03-20T00:36:54;6;5;
57289;PMS5003;43523;53.022;-1.178;2023-03-20T00:37:56;4;4;
57289;PMS5003;43523;53.022;-1.178;2023-03-20T00:38:59;4;4;
57289;PMS5003;43523;53.022;-1.178;2023-03-20T00:40:01;3;3;
57289;PMS5003;43523;53.022;-1.178;2023-03-20T00:41:10;6;4;
57289;PMS5003;43523;53.022;-1.178;2023-03-20T00:42:22;4;4;
57289;PMS5003;43523;53.022;-1.178;2023-03-20T00:43:24;4;4;
57289;PMS5003;43523;53.022;-1.178;2023-03-20T00:44:28;5;4;
57289;PMS5003;43523;53.022;-1.178;2023-03-20T00:45:34;8;5;
57289;PMS5003;43523;53.022;-1.178;2023-03-20T00:46:37;4;3;
57289;PMS5003;43523;53.022;-1.178;2023-03-20T00:47:40;5;5;
57289;PMS5003;43523;53.022;-1.178;2023-03-20T00:48:43;5;4;
57289;PMS5003;43523;53.022;-1.178;2023-03-20T00:49:47;6;4;
57289;PMS5003;43523;53.022;-1.178;2023-03-20T00:50:51;6;5;
57289;PMS5003;43523;53.022;-1.178;2023-03-20T00:51:54;6;4;
57289;PMS5003;43523;53.022;-1.178;2023-03-20T00:52:56;4;2;
57289;PMS5003;43523;53.022;-1.178;2023-03-20T00:53:59;5;5;
57289;PMS5003;43523;53.022;-1.178;2023-03-20T00:55:02;4;4;
57289;PMS5003;43523;53.022;-1.178;2023-03-20T00:56:05;5;5;
57289;PMS5003;43523;53.022;-1.178;2023-03-20T00:57:15;5;5;
57289;PMS5003;43523;53.022;-1.178;2023-03-20T00:58:22;4;4;
57289;PMS5003;43523;53.022;-1.178;2023-03-20T00:59:26;6;4;
57289;PMS5003;43523;53.022;-1.178;2023-03-20T01:00:33;6;6;
57289;PMS5003;43523;53.022;-1.178;2023-03-20T01:01:38;6;4;
57289;PMS5003;43523;53.022;-1.178;2023-03-20T01:02:41;4;4;
57289;PMS5003;43523;53.022;-1.178;2023-03-20T01:03:43;4;4;
57289;PMS5003;43523;53.022;-1.178;2023-03-20T01:04:46;3;3;
57289;PMS5003;43523;53.022;-1.178;2023-03-20T01:05:49;5;5;
57289;PMS5003;43523;53.022;-1.178;2023-03-20T01:06:53;10;4;
57289;PMS5003;43523;53.022;-1.178;2023-03-20T01:07:55;5;4;
57289;PMS5003;43523;53.022;-1.178;2023-03-20T01:08:57;6;4;
57289;PMS5003;43523;53.022;-1.178;2023-03-20T01:10:00;3;3;
57289;PMS5003;43523;53.022;-1.178;2023-03-20T01:11:02;7;4;
57289;PMS5003;43523;53.022;-1.178;2023-03-20T01:12:05;7;4;
57289;PMS5003;43523;53.022;-1.178;2023-03-20T01:13:12;6;4;
57289;PMS5003;43523;53.022;-1.178;2023-03-20T01:14:19;7;5;
57289;PMS5003;43523;53.022;-1.178;2023-03-20T01:15:22;6;5;
57289;PMS5003;43523;53.022;-1.178;2023-03-20T01:16:28;4;3;
57289;PMS5003;43523;53.022;-1.178;2023-03-20T01:17:30;6;4;
57289;PMS5003;43523;53.022;-1.178;2023-03-20T01:18:33;5;3;
57289;PMS5003;43523;53.022;-1.178;2023-03-20T01:19:35;9;4;
57289;PMS5003;43523;53.022;-1.178;2023-03-20T01:20:38;5;4;
57289;PMS5003;43523;53.022;-1.178;2023-03-20T01:21:40;2;2;
57289;PMS5003;43523;53.022;-1.178;2023-03-20T01:22:44;5;5;
57289;PMS5003;43523;53.022;-1.178;2023-03-20T01:23:46;8;4;
57289;PMS5003;43523;53.022;-1.178;2023-03-20T01:24:50;5;3;
57289;PMS5003;43523;53.022;-1.178;2023-03-20T01:25:53;6;5;
57289;PMS5003;43523;53.022;-1.178;2023-03-20T01:26:55;6;3;
57289;PMS5003;43523;53.022;-1.178;2023-03-20T01:27:57;8;5;
57289;PMS5003;43523;53.022;-1.178;2023-03-20T01:29:00;9;6;
57289;PMS5003;43523;53.022;-1.178;2023-03-20T01:30:05;4;3;
57289;PMS5003;43523;53.022;-1.178;2023-03-20T01:31:16;2;2;
57289;PMS5003;43523;53.022;-1.178;2023-03-20T01:32:19;6;4;
57289;PMS5003;43523;53.022;-1.178;2023-03-20T01:33:22;3;3;
57289;PMS5003;43523;53.022;-1.178;2023-03-20T01:34:25;4;4;
57289;PMS5003;43523;53.022;-1.178;2023-03-20T01:35:28;1;1;
57289;PMS5003;43523;53.022;-1.178;2023-03-20T01:36:30;5;5;
57289;PMS5003;43523;53.022;-1.178;2023-03-20T01:37:33;6;4;
57289;PMS5003;43523;53.022;-1.178;2023-03-20T01:38:35;5;4;
57289;PMS5003;43523;53.022;-1.178;2023-03-20T01:39:40;3;3;
57289;PMS5003;43523;53.022;-1.178;2023-03-20T01:40:46;5;4;
57289;PMS5003;43523;53.022;-1.178;2023-03-20T01:41:53;4;4;
57289;PMS5003;43523;53.022;-1.178;2023-03-20T01:42:56;4;3;
57289;PMS5003;43523;53.022;-1.178;2023-03-20T01:43:59;3;3;
57289;PMS5003;43523;53.022;-1.178;2023-03-20T01:45:14;7;4;
57289;PMS5003;43523;53.022;-1.178;2023-03-20T01:46:22;4;3;
57289;PMS5003;43523;53.022;-1.178;2023-03-20T01:47:25;4;4;
57289;PMS5003;43523;53.022;-1.178;2023-03-20T01:48:34;8;5;
57289;PMS5003;43523;53.022;-1.178;2023-03-20T01:50:30;7;3;
57289;PMS5003;43523;53.022;-1.178;2023-03-20T01:51:33;6;4;
57289;PMS5003;43523;53.022;-1.178;2023-03-20T01:52:35;8;4;
57289;PMS5003;43523;53.022;-1.178;2023-03-20T01:53:38;5;3;
57289;PMS5003;43523;53.022;-1.178;2023-03-20T01:54:40;6;4;
57289;PMS5003;43523;53.022;-1.178;2023-03-20T01:55:42;6;5;
57289;PMS5003;43523;53.022;-1.178;2023-03-20T01:56:48;6;5;
57289;PMS5003;43523;53.022;-1.178;2023-03-20T01:57:53;7;4;
57289;PMS5003;43523;53.022;-1.178;2023-03-20T01:59:01;6;3;
57289;PMS5003;43523;53.022;-1.178;2023-03-20T02:00:08;6;5;
57289;PMS5003;43523;53.022;-1.178;2023-03-20T02:01:12;8;3;
57289;PMS5003;43523;53.022;-1.178;2023-03-20T02:02:16;5;5;
57289;PMS5003;43523;53.022;-1.178;2023-03-20T02:03:22;5;1;
57289;PMS5003;43523;53.022;-1.178;2023-03-20T02:04:27;5;3;
57289;PMS5003;43523;53.022;-1.178;2023-03-20T02:05:34;8;5;
57289;PMS5003;43523;53.022;-1.178;2023-03-20T02:06:38;4;1;
57289;PMS5003;43523;53.022;-1.178;2023-03-20T02:07:48;5;5;
57289;PMS5003;43523;53.022;-1.178;2023-03-20T02:08:58;5;5;
57289;PMS5003;43523;53.022;-1.178;2023-03-20T02:10:01;3;3;
57289;PMS5003;43523;53.022;-1.178;2023-03-20T02:11:05;4;4;
57289;PMS5003;43523;53.022;-1.178;2023-03-20T02:12:07;5;5;
57289;PMS5003;43523;53.022;-1.178;2023-03-20T02:13:10;7;6;
57289;PMS5003;43523;53.022;-1.178;2023-03-20T02:14:15;6;4;
57289;PMS5003;43523;53.022;-1.178;2023-03-20T02:15:17;5;4;
57289;PMS5003;43523;53.022;-1.178;2023-03-20T02:16:19;11;5;
57289;PMS5003;43523;53.022;-1.178;2023-03-20T02:17:22;4;4;
57289;PMS5003;43523;53.022;-1.178;2023-03-20T02:18:24;4;4;
57289;PMS5003;43523;53.022;-1.178;2023-03-20T02:19:28;4;4;
57289;PMS5003;43523;53.022;-1.178;2023-03-20T02:20:42;5;3;
57289;PMS5003;43523;53.022;-1.178;2023-03-20T02:22:05;7;7;
57289;PMS5003;43523;53.022;-1.178;2023-03-20T02:23:30;5;5;
57289;PMS5003;43523;53.022;-1.178;2023-03-20T02:24:53;3;3;
57289;PMS5003;43523;53.022;-1.178;2023-03-20T02:27:13;3;3;
57289;PMS5003;43523;53.022;-1.178;2023-03-20T02:28:30;4;4;
57289;PMS5003;43523;53.022;-1.178;2023-03-20T02:31:13;11;6;
57289;PMS5003;43523;53.022;-1.178;2023-03-20T02:32:50;8;3;
57289;PMS5003;43523;53.022;-1.178;2023-03-20T02:34:38;6;5;
57289;PMS5003;43523;53.022;-1.178;2023-03-20T02:36:06;4;4;
57289;PMS5003;43523;53.022;-1.178;2023-03-20T02:37:51;10;7;
57289;PMS5003;43523;53.022;-1.178;2023-03-20T02:39:03;7;6;
57289;PMS5003;43523;53.022;-1.178;2023-03-20T02:40:16;8;7;
57289;PMS5003;43523;53.022;-1.178;2023-03-20T02:41:27;6;4;
57289;PMS5003;43523;53.022;-1.178;2023-03-20T02:42:38;8;5;
57289;PMS5003;43523;53.022;-1.178;2023-03-20T02:43:47;4;4;
57289;PMS5003;43523;53.022;-1.178;2023-03-20T02:45:01;6;4;
57289;PMS5003;43523;53.022;-1.178;2023-03-20T02:46:11;10;7;
57289;PMS5003;43523;53.022;-1.178;2023-03-20T02:47:21;6;5;
57289;PMS5003;43523;53.022;-1.178;2023-03-20T02:48:31;6;6;
57289;PMS5003;43523;53.022;-1.178;2023-03-20T02:49:45;6;6;
57289;PMS5003;43523;53.022;-1.178;2023-03-20T02:50:57;7;4;
57289;PMS5003;43523;53.022;-1.178;2023-03-20T02:52:07;11;6;
57289;PMS5003;43523;53.022;-1.178;2023-03-20T02:53:19;4;4;
57289;PMS5003;43523;53.022;-1.178;2023-03-20T02:54:32;7;4;
57289;PMS5003;43523;53.022;-1.178;2023-03-20T02:55:40;6;5;
57289;PMS5003;43523;53.022;-1.178;2023-03-20T02:56:49;6;6;
57289;PMS5003;43523;53.022;-1.178;2023-03-20T02:58:00;8;6;
57289;PMS5003;43523;53.022;-1.178;2023-03-20T02:59:11;6;4;
57289;PMS5003;43523;53.022;-1.178;2023-03-20T03:00:27;6;5;
57289;PMS5003;43523;53.022;-1.178;2023-03-20T03:01:34;5;5;
57289;PMS5003;43523;53.022;-1.178;2023-03-20T03:02:41;7;6;
57289;PMS5003;43523;53.022;-1.178;2023-03-20T03:03:49;6;6;
57289;PMS5003;43523;53.022;-1.178;2023-03-20T03:04:57;11;9;
57289;PMS5003;43523;53.022;-1.178;2023-03-20T03:06:05;8;5;
57289;PMS5003;43523;53.022;-1.178;2023-03-20T03:07:10;7;6;
57289;PMS5003;43523;53.022;-1.178;2023-03-20T03:08:15;9;8;
57289;PMS5003;43523;53.022;-1.178;2023-03-20T03:09:22;6;6;
57289;PMS5003;43523;53.022;-1.178;2023-03-20T03:10:28;9;9;
57289;PMS5003;43523;53.022;-1.178;2023-03-20T03:11:35;9;8;
57289;PMS5003;43523;53.022;-1.178;2023-03-20T03:12:42;8;6;
57289;PMS5003;43523;53.022;-1.178;2023-03-20T03:13:48;10;8;
57289;PMS5003;43523;53.022;-1.178;2023-03-20T03:14:54;10;8;
57289;PMS5003;43523;53.022;-1.178;2023-03-20T03:16:02;10;9;
57289;PMS5003;43523;53.022;-1.178;2023-03-20T03:17:09;11;11;
57289;PMS5003;43523;53.022;-1.178;2023-03-20T03:18:17;12;9;
57289;PMS5003;43523;53.022;-1.178;2023-03-20T03:19:23;9;8;
57289;PMS5003;43523;53.022;-1.178;2023-03-20T03:20:29;8;6;
57289;PMS5003;43523;53.022;-1.178;2023-03-20T03:21:34;10;9;
57289;PMS5003;43523;53.022;-1.178;2023-03-20T03:22:38;13;8;
57289;PMS5003;43523;53.022;-1.178;2023-03-20T03:23:41;12;11;
57289;PMS5003;43523;53.022;-1.178;2023-03-20T03:24:47;7;7;
57289;PMS5003;43523;53.022;-1.178;2023-03-20T03:25:51;11;9;
57289;PMS5003;43523;53.022;-1.178;2023-03-20T03:26:56;8;6;
57289;PMS5003;43523;53.022;-1.178;2023-03-20T03:28:02;10;8;
57289;PMS5003;43523;53.022;-1.178;2023-03-20T03:29:10;12;8;
57289;PMS5003;43523;53.022;-1.178;2023-03-20T03:30:15;14;10;
57289;PMS5003;43523;53.022;-1.178;2023-03-20T03:31:22;11;11;
57289;PMS5003;43523;53.022;-1.178;2023-03-20T03:32:27;13;10;
57289;PMS5003;43523;53.022;-1.178;2023-03-20T03:33:32;9;9;
57289;PMS5003;43523;53.022;-1.178;2023-03-20T03:34:36;14;10;
57289;PMS5003;43523;53.022;-1.178;2023-03-20T03:35:40;12;11;
57289;PMS5003;43523;53.022;-1.178;2023-03-20T03:36:45;11;10;
57289;PMS5003;43523;53.022;-1.178;2023-03-20T03:37:54;12;10;
57289;PMS5003;43523;53.022;-1.178;2023-03-20T03:39:02;13;9;
57289;PMS5003;43523;53.022;-1.178;2023-03-20T03:40:15;10;10;
57289;PMS5003;43523;53.022;-1.178;2023-03-20T03:41:26;11;10;
57289;PMS5003;43523;53.022;-1.178;2023-03-20T03:42:34;12;12;
57289;PMS5003;43523;53.022;-1.178;2023-03-20T03:43:44;12;9;
57289;PMS5003;43523;53.022;-1.178;2023-03-20T03:44:54;15;11;
57289;PMS5003;43523;53.022;-1.178;2023-03-20T03:46:01;13;10;
57289;PMS5003;43523;53.022;-1.178;2023-03-20T03:47:09;11;10;
57289;PMS5003;43523;53.022;-1.178;2023-03-20T03:48:16;14;11;
57289;PMS5003;43523;53.022;-1.178;2023-03-20T03:49:22;10;10;
57289;PMS5003;43523;53.022;-1.178;2023-03-20T03:50:28;16;9;
57289;PMS5003;43523;53.022;-1.178;2023-03-20T03:51:33;12;8;
57289;PMS5003;43523;53.022;-1.178;2023-03-20T03:52:40;9;9;
57289;PMS5003;43523;53.022;-1.178;2023-03-20T03:53:49;13;12;
57289;PMS5003;43523;53.022;-1.178;2023-03-20T03:54:57;16;13;
57289;PMS5003;43523;53.022;-1.178;2023-03-20T03:56:04;11;9;
57289;PMS5003;43523;53.022;-1.178;2023-03-20T03:57:11;15;11;
57289;PMS5003;43523;53.022;-1.178;2023-03-20T03:58:18;14;12;
57289;PMS5003;43523;53.022;-1.178;2023-03-20T03:59:26;17;14;
57289;PMS5003;43523;53.022;-1.178;2023-03-20T04:00:35;12;12;
57289;PMS5003;43523;53.022;-1.178;2023-03-20T04:01:41;13;9;
57289;PMS5003;43523;53.022;-1.178;2023-03-20T04:02:48;16;11;
57289;PMS5003;43523;53.022;-1.178;2023-03-20T04:03:55;15;11;
57289;PMS5003;43523;53.022;-1.178;2023-03-20T04:05:01;22;15;
57289;PMS5003;43523;53.022;-1.178;2023-03-20T04:06:06;16;10;
57289;PMS5003;43523;53.022;-1.178;2023-03-20T04:07:12;13;12;
57289;PMS5003;43523;53.022;-1.178;2023-03-20T04:08:14;12;11;
57289;PMS5003;43523;53.022;-1.178;2023-03-20T04:09:16;15;13;
57289;PMS5003;43523;53.022;-1.178;2023-03-20T04:10:19;14;12;
57289;PMS5003;43523;53.022;-1.178;2023-03-20T04:11:23;15;11;
57289;PMS5003;43523;53.022;-1.178;2023-03-20T04:12:31;16;12;
57289;PMS5003;43523;53.022;-1.178;2023-03-20T04:13:35;10;10;
57289;PMS5003;43523;53.022;-1.178;2023-03-20T04:14:38;15;12;
57289;PMS5003;43523;53.022;-1.178;2023-03-20T04:15:40;14;12;
57289;PMS5003;43523;53.022;-1.178;2023-03-20T04:16:43;18;13;
57289;PMS5003;43523;53.022;-1.178;2023-03-20T04:17:47;10;10;
57289;PMS5003;43523;53.022;-1.178;2023-03-20T04:18:49;12;9;
57289;PMS5003;43523;53.022;-1.178;2023-03-20T04:19:52;19;12;
57289;PMS5003;43523;53.022;-1.178;2023-03-20T04:20:54;12;12;
57289;PMS5003;43523;53.022;-1.178;2023-03-20T04:21:56;16;12;
57289;PMS5003;43523;53.022;-1.178;2023-03-20T04:22:59;12;11;
57289;PMS5003;43523;53.022;-1.178;2023-03-20T04:24:02;10;9;
57289;PMS5003;43523;53.022;-1.178;2023-03-20T04:25:04;19;12;
57289;PMS5003;43523;53.022;-1.178;2023-03-20T04:26:08;14;12;
57289;PMS5003;43523;53.022;-1.178;2023-03-20T04:27:11;11;10;
57289;PMS5003;43523;53.022;-1.178;2023-03-20T04:28:13;9;9;
57289;PMS5003;43523;53.022;-1.178;2023-03-20T04:29:16;18;12;
57289;PMS5003;43523;53.022;-1.178;2023-03-20T04:30:19;13;10;
57289;PMS5003;43523;53.022;-1.178;2023-03-20T04:31:21;11;11;
57289;PMS5003;43523;53.022;-1.178;2023-03-20T04:32:24;10;9;
57289;PMS5003;43523;53.022;-1.178;2023-03-20T04:33:27;13;9;
57289;PMS5003;43523;53.022;-1.178;2023-03-20T04:34:30;11;8;
57289;PMS5003;43523;53.022;-1.178;2023-03-20T04:35:32;11;11;
57289;PMS5003;43523;53.022;-1.178;2023-03-20T04:36:34;14;10;
57289;PMS5003;43523;53.022;-1.178;2023-03-20T04:37:37;13;10;
57289;PMS5003;43523;53.022;-1.178;2023-03-20T04:38:40;15;12;
57289;PMS5003;43523;53.022;-1.178;2023-03-20T04:39:43;9;8;
57289;PMS5003;43523;53.022;-1.178;2023-03-20T04:40:45;13;10;
57289;PMS5003;43523;53.022;-1.178;2023-03-20T04:41:48;11;10;
57289;PMS5003;43523;53.022;-1.178;2023-03-20T04:42:51;9;8;
57289;PMS5003;43523;53.022;-1.178;2023-03-20T04:43:53;7;7;
57289;PMS5003;43523;53.022;-1.178;2023-03-20T04:44:56;10;9;
57289;PMS5003;43523;53.022;-1.178;2023-03-20T04:45:58;9;8;
57289;PMS5003;43523;53.022;-1.178;2023-03-20T04:47:00;11;8;
57289;PMS5003;43523;53.022;-1.178;2023-03-20T04:48:03;15;10;
57289;PMS5003;43523;53.022;-1.178;2023-03-20T04:49:06;8;7;
57289;PMS5003;43523;53.022;-1.178;2023-03-20T04:50:09;9;8;
57289;PMS5003;43523;53.022;-1.178;2023-03-20T04:51:11;14;10;
57289;PMS5003;43523;53.022;-1.178;2023-03-20T04:52:14;9;7;
57289;PMS5003;43523;53.022;-1.178;2023-03-20T04:53:16;9;9;
57289;PMS5003;43523;53.022;-1.178;2023-03-20T04:54:19;12;8;
57289;PMS5003;43523;53.022;-1.178;2023-03-20T04:55:21;9;6;
57289;PMS5003;43523;53.022;-1.178;2023-03-20T04:56:24;8;7;
57289;PMS5003;43523;53.022;-1.178;2023-03-20T04:57:26;9;9;
57289;PMS5003;43523;53.022;-1.178;2023-03-20T04:58:29;8;6;
57289;PMS5003;43523;53.022;-1.178;2023-03-20T04:59:31;9;9;
57289;PMS5003;43523;53.022;-1.178;2023-03-20T05:00:33;9;7;
57289;PMS5003;43523;53.022;-1.178;2023-03-20T05:01:36;8;6;
57289;PMS5003;43523;53.022;-1.178;2023-03-20T05:02:38;9;8;
57289;PMS5003;43523;53.022;-1.178;2023-03-20T05:03:41;10;8;
57289;PMS5003;43523;53.022;-1.178;2023-03-20T05:04:43;10;8;
57289;PMS5003;43523;53.022;-1.178;2023-03-20T05:05:46;11;7;
57289;PMS5003;43523;53.022;-1.178;2023-03-20T05:06:48;9;6;
57289;PMS5003;43523;53.022;-1.178;2023-03-20T05:07:51;9;5;
57289;PMS5003;43523;53.022;-1.178;2023-03-20T05:08:53;10;9;
57289;PMS5003;43523;53.022;-1.178;2023-03-20T05:09:56;8;5;
57289;PMS5003;43523;53.022;-1.178;2023-03-20T05:10:58;10;7;
57289;PMS5003;43523;53.022;-1.178;2023-03-20T05:12:01;6;5;
57289;PMS5003;43523;53.022;-1.178;2023-03-20T05:13:03;8;7;
57289;PMS5003;43523;53.022;-1.178;2023-03-20T05:14:06;6;6;
57289;PMS5003;43523;53.022;-1.178;2023-03-20T05:15:08;6;5;
57289;PMS5003;43523;53.022;-1.178;2023-03-20T05:16:12;9;7;
57289;PMS5003;43523;53.022;-1.178;2023-03-20T05:17:14;11;6;
57289;PMS5003;43523;53.022;-1.178;2023-03-20T05:18:17;9;4;
57289;PMS5003;43523;53.022;-1.178;2023-03-20T05:19:19;5;5;
57289;PMS5003;43523;53.022;-1.178;2023-03-20T05:20:21;5;4;
57289;PMS5003;43523;53.022;-1.178;2023-03-20T05:21:24;8;5;
57289;PMS5003;43523;53.022;-1.178;2023-03-20T05:22:26;7;5;
57289;PMS5003;43523;53.022;-1.178;2023-03-20T05:23:29;6;3;
57289;PMS5003;43523;53.022;-1.178;2023-03-20T05:24:31;9;6;
57289;PMS5003;43523;53.022;-1.178;2023-03-20T05:25:33;9;8;
57289;PMS5003;43523;53.022;-1.178;2023-03-20T05:26:36;8;7;
57289;PMS5003;43523;53.022;-1.178;2023-03-20T05:27:38;5;5;
57289;PMS5003;43523;53.022;-1.178;2023-03-20T05:28:43;6;6;
57289;PMS5003;43523;53.022;-1.178;2023-03-20T05:29:45;7;6;
57289;PMS5003;43523;53.022;-1.178;2023-03-20T05:30:47;11;5;
57289;PMS5003;43523;53.022;-1.178;2023-03-20T05:31:50;7;6;
57289;PMS5003;43523;53.022;-1.178;2023-03-20T05:32:52;5;4;
57289;PMS5003;43523;53.022;-1.178;2023-03-20T05:33:54;11;7;
57289;PMS5003;43523;53.022;-1.178;2023-03-20T05:34:57;15;6;
57289;PMS5003;43523;53.022;-1.178;2023-03-20T05:35:59;5;4;
57289;PMS5003;43523;53.022;-1.178;2023-03-20T05:37:02;5;3;
57289;PMS5003;43523;53.022;-1.178;2023-03-20T05:38:04;6;3;
57289;PMS5003;43523;53.022;-1.178;2023-03-20T05:39:07;8;6;
57289;PMS5003;43523;53.022;-1.178;2023-03-20T05:40:09;9;7;
57289;PMS5003;43523;53.022;-1.178;2023-03-20T05:41:14;6;4;
57289;PMS5003;43523;53.022;-1.178;2023-03-20T05:42:17;11;10;
57289;PMS5003;43523;53.022;-1.178;2023-03-20T05:43:19;8;5;
57289;PMS5003;43523;53.022;-1.178;2023-03-20T05:44:22;5;5;
57289;PMS5003;43523;53.022;-1.178;2023-03-20T05:45:24;10;6;
57289;PMS5003;43523;53.022;-1.178;2023-03-20T05:46:27;6;5;
57289;PMS5003;43523;53.022;-1.178;2023-03-20T05:47:29;8;6;
57289;PMS5003;43523;53.022;-1.178;2023-03-20T05:48:32;6;4;
57289;PMS5003;43523;53.022;-1.178;2023-03-20T05:49:34;10;6;
57289;PMS5003;43523;53.022;-1.178;2023-03-20T05:50:37;5;4;
57289;PMS5003;43523;53.022;-1.178;2023-03-20T05:51:40;4;4;
57289;PMS5003;43523;53.022;-1.178;2023-03-20T05:52:45;4;4;
57289;PMS5003;43523;53.022;-1.178;2023-03-20T05:53:48;5;5;
57289;PMS5003;43523;53.022;-1.178;2023-03-20T05:54:51;5;4;
57289;PMS5003;43523;53.022;-1.178;2023-03-20T05:55:53;4;4;
57289;PMS5003;43523;53.022;-1.178;2023-03-20T05:56:56;4;4;
57289;PMS5003;43523;53.022;-1.178;2023-03-20T05:57:58;8;6;
57289;PMS5003;43523;53.022;-1.178;2023-03-20T05:59:01;6;5;
57289;PMS5003;43523;53.022;-1.178;2023-03-20T06:00:04;7;5;
57289;PMS5003;43523;53.022;-1.178;2023-03-20T06:01:07;6;4;
57289;PMS5003;43523;53.022;-1.178;2023-03-20T06:02:09;8;5;
57289;PMS5003;43523;53.022;-1.178;2023-03-20T06:03:12;6;4;
57289;PMS5003;43523;53.022;-1.178;2023-03-20T06:04:15;6;4;
57289;PMS5003;43523;53.022;-1.178;2023-03-20T06:05:17;7;4;
57289;PMS5003;43523;53.022;-1.178;2023-03-20T06:06:20;5;5;
57289;PMS5003;43523;53.022;-1.178;2023-03-20T06:07:22;9;8;
57289;PMS5003;43523;53.022;-1.178;2023-03-20T06:08:24;7;5;
57289;PMS5003;43523;53.022;-1.178;2023-03-20T06:09:27;9;4;
57289;PMS5003;43523;53.022;-1.178;2023-03-20T06:10:30;8;4;
57289;PMS5003;43523;53.022;-1.178;2023-03-20T06:11:33;7;7;
57289;PMS5003;43523;53.022;-1.178;2023-03-20T06:12:35;5;3;
57289;PMS5003;43523;53.022;-1.178;2023-03-20T06:13:38;5;5;
57289;PMS5003;43523;53.022;-1.178;2023-03-20T06:14:40;5;4;
57289;PMS5003;43523;53.022;-1.178;2023-03-20T06:15:43;6;5;
57289;PMS5003;43523;53.022;-1.178;2023-03-20T06:16:45;4;4;
57289;PMS5003;43523;53.022;-1.178;2023-03-20T06:17:48;6;4;
57289;PMS5003;43523;53.022;-1.178;2023-03-20T06:18:50;5;5;
57289;PMS5003;43523;53.022;-1.178;2023-03-20T06:19:53;6;4;
57289;PMS5003;43523;53.022;-1.178;2023-03-20T06:20:55;7;7;
57289;PMS5003;43523;53.022;-1.178;2023-03-20T06:21:58;10;6;
57289;PMS5003;43523;53.022;-1.178;2023-03-20T06:23:00;5;5;
57289;PMS5003;43523;53.022;-1.178;2023-03-20T06:24:03;7;5;
57289;PMS5003;43523;53.022;-1.178;2023-03-20T06:25:06;5;4;
57289;PMS5003;43523;53.022;-1.178;2023-03-20T06:26:09;6;5;
57289;PMS5003;43523;53.022;-1.178;2023-03-20T06:27:11;14;10;
57289;PMS5003;43523;53.022;-1.178;2023-03-20T06:28:13;10;8;
57289;PMS5003;43523;53.022;-1.178;2023-03-20T06:29:16;6;5;
57289;PMS5003;43523;53.022;-1.178;2023-03-20T06:30:19;6;4;
57289;PMS5003;43523;53.022;-1.178;2023-03-20T06:31:21;4;3;
57289;PMS5003;43523;53.022;-1.178;2023-03-20T06:32:23;6;5;
57289;PMS5003;43523;53.022;-1.178;2023-03-20T06:33:26;9;7;
57289;PMS5003;43523;53.022;-1.178;2023-03-20T06:34:28;10;6;
57289;PMS5003;43523;53.022;-1.178;2023-03-20T06:35:31;12;6;
57289;PMS5003;43523;53.022;-1.178;2023-03-20T06:36:33;10;8;
57289;PMS5003;43523;53.022;-1.178;2023-03-20T06:37:36;9;7;
57289;PMS5003;43523;53.022;-1.178;2023-03-20T06:38:38;8;7;
57289;PMS5003;43523;53.022;-1.178;2023-03-20T06:39:43;5;5;
57289;PMS5003;43523;53.022;-1.178;2023-03-20T06:40:46;7;6;
57289;PMS5003;43523;53.022;-1.178;2023-03-20T06:41:48;4;4;
57289;PMS5003;43523;53.022;-1.178;2023-03-20T06:42:51;8;8;
57289;PMS5003;43523;53.022;-1.178;2023-03-20T06:43:53;9;6;
57289;PMS5003;43523;53.022;-1.178;2023-03-20T06:44:55;4;3;
57289;PMS5003;43523;53.022;-1.178;2023-03-20T06:45:58;12;8;
57289;PMS5003;43523;53.022;-1.178;2023-03-20T06:47:00;6;6;
57289;PMS5003;43523;53.022;-1.178;2023-03-20T06:48:04;7;7;
57289;PMS5003;43523;53.022;-1.178;2023-03-20T06:49:07;9;7;
57289;PMS5003;43523;53.022;-1.178;2023-03-20T06:50:10;7;7;
57289;PMS5003;43523;53.022;-1.178;2023-03-20T06:51:13;7;7;
57289;PMS5003;43523;53.022;-1.178;2023-03-20T06:52:16;7;7;
57289;PMS5003;43523;53.022;-1.178;2023-03-20T06:53:20;7;7;
57289;PMS5003;43523;53.022;-1.178;2023-03-20T06:54:22;10;6;
57289;PMS5003;43523;53.022;-1.178;2023-03-20T06:55:24;11;7;
57289;PMS5003;43523;53.022;-1.178;2023-03-20T06:56:27;11;8;
57289;PMS5003;43523;53.022;-1.178;2023-03-20T06:57:29;8;7;
57289;PMS5003;43523;53.022;-1.178;2023-03-20T06:58:32;8;8;
57289;PMS5003;43523;53.022;-1.178;2023-03-20T06:59:34;10;8;
57289;PMS5003;43523;53.022;-1.178;2023-03-20T07:00:37;9;7;
57289;PMS5003;43523;53.022;-1.178;2023-03-20T07:01:39;12;6;
57289;PMS5003;43523;53.022;-1.178;2023-03-20T07:02:43;11;7;
57289;PMS5003;43523;53.022;-1.178;2023-03-20T07:03:45;9;7;
57289;PMS5003;43523;53.022;-1.178;2023-03-20T07:04:48;10;9;
57289;PMS5003;43523;53.022;-1.178;2023-03-20T07:05:50;11;8;
57289;PMS5003;43523;53.022;-1.178;2023-03-20T07:06:52;9;9;
57289;PMS5003;43523;53.022;-1.178;2023-03-20T07:07:56;9;7;
57289;PMS5003;43523;53.022;-1.178;2023-03-20T07:08:58;9;7;
57289;PMS5003;43523;53.022;-1.178;2023-03-20T07:10:01;6;6;
57289;PMS5003;43523;53.022;-1.178;2023-03-20T07:11:03;8;8;
57289;PMS5003;43523;53.022;-1.178;2023-03-20T07:12:09;9;9;
57289;PMS5003;43523;53.022;-1.178;2023-03-20T07:13:12;10;7;
57289;PMS5003;43523;53.022;-1.178;2023-03-20T07:14:15;14;8;
57289;PMS5003;43523;53.022;-1.178;2023-03-20T07:15:22;14;10;
57289;PMS5003;43523;53.022;-1.178;2023-03-20T07:16:24;11;10;
57289;PMS5003;43523;53.022;-1.178;2023-03-20T07:17:27;12;9;